sensor_id;sensor_type;location;lat;lon;timestamp;pressure;altitude;pressure_sealevel;temperature;humidity
29879;BME280;16752;53.364;-1.488;2024-02-14T00:02:43;99500.06;;;16.53;49.77
29879;BME280;16752;53.364;-1.488;2024-02-14T00:05:27;99503.34;;;16.46;49.85
29879;BME280;16752;53.364;-1.488;2024-02-14T00:08:12;99500.41;;;16.49;49.76
29879;BME280;16752;53.364;-1.488;2024-02-14T00:10:58;99501.72;;;16.54;49.72
29879;BME280;16752;53.364;-1.488;2024-02-14T00:13:42;99508.66;;;16.55;49.68
29879;BME280;16752;53.364;-1.488;2024-02-14T00:16:27;99505.69;;;16.58;49.77
29879;BME280;16752;53.364;-1.488;2024-02-14T00:19:11;99510.00;;;16.59;49.80
29879;BME280;16752;53.364;-1.488;2024-02-14T00:21:55;99508.19;;;16.59;49.77
29879;BME280;16752;53.364;-1.488;2024-02-14T00:24:39;99511.81;;;16.58;49.76
29879;BME280;16752;53.364;-1.488;2024-02-14T00:27:23;99499.94;;;16.62;49.80
29879;BME280;16752;53.364;-1.488;2024-02-14T00:30:09;99496.03;;;16.32;50.47
29879;BME280;16752;53.364;-1.488;2024-02-14T00:32:54;99491.72;;;16.31;50.60
29879;BME280;16752;53.364;-1.488;2024-02-14T00:35:38;99494.38;;;16.31;50.78
29879;BME280;16752;53.364;-1.488;2024-02-14T00:38:22;99495.88;;;16.34;50.55
29879;BME280;16752;53.364;-1.488;2024-02-14T00:41:06;99501.78;;;16.28;50.92
29879;BME280;16752;53.364;-1.488;2024-02-14T00:43:50;99503.94;;;16.32;50.82
29879;BME280;16752;53.364;-1.488;2024-02-14T00:46:33;99503.72;;;16.52;50.35
29879;BME280;16752;53.364;-1.488;2024-02-14T00:49:17;99508.50;;;16.56;50.31
29879;BME280;16752;53.364;-1.488;2024-02-14T00:52:03;99512.41;;;16.44;50.49
29879;BME280;16752;53.364;-1.488;2024-02-14T00:54:47;99511.75;;;16.42;50.88
29879;BME280;16752;53.364;-1.488;2024-02-14T00:57:31;99512.38;;;16.70;50.08
29879;BME280;16752;53.364;-1.488;2024-02-14T01:00:15;99516.81;;;16.69;50.23
29879;BME280;16752;53.364;-1.488;2024-02-14T01:03:01;99522.81;;;16.71;50.23
29879;BME280;16752;53.364;-1.488;2024-02-14T01:05:47;99525.28;;;16.73;50.17
29879;BME280;16752;53.364;-1.488;2024-02-14T01:08:31;99527.63;;;16.76;50.32
29879;BME280;16752;53.364;-1.488;2024-02-14T01:11:15;99524.13;;;16.75;50.43
29879;BME280;16752;53.364;-1.488;2024-02-14T01:13:59;99528.66;;;16.99;49.68
29879;BME280;16752;53.364;-1.488;2024-02-14T01:16:44;99518.91;;;17.08;49.31
29879;BME280;16752;53.364;-1.488;2024-02-14T01:19:28;99523.56;;;17.14;49.26
29879;BME280;16752;53.364;-1.488;2024-02-14T01:22:12;99522.06;;;17.11;49.62
29879;BME280;16752;53.364;-1.488;2024-02-14T01:24:59;99526.72;;;17.18;49.31
29879;BME280;16752;53.364;-1.488;2024-02-14T01:27:43;99518.78;;;17.18;49.49
29879;BME280;16752;53.364;-1.488;2024-02-14T01:30:28;99515.81;;;17.21;49.23
29879;BME280;16752;53.364;-1.488;2024-02-14T01:33:12;99508.84;;;17.20;49.19
29879;BME280;16752;53.364;-1.488;2024-02-14T01:35:56;99517.28;;;17.23;49.11
29879;BME280;16752;53.364;-1.488;2024-02-14T01:38:41;99508.53;;;17.23;49.26
29879;BME280;16752;53.364;-1.488;2024-02-14T01:41:26;99517.13;;;17.25;49.33
29879;BME280;16752;53.364;-1.488;2024-02-14T01:44:10;99504.56;;;17.27;49.19
29879;BME280;16752;53.364;-1.488;2024-02-14T01:46:54;99512.28;;;17.04;49.64
29879;BME280;16752;53.364;-1.488;2024-02-14T01:49:38;99511.47;;;17.03;49.78
29879;BME280;16752;53.364;-1.488;2024-02-14T01:52:22;99523.22;;;17.01;49.97
29879;BME280;16752;53.364;-1.488;2024-02-14T01:55:06;99526.69;;;17.01;49.86
29879;BME280;16752;53.364;-1.488;2024-02-14T01:57:51;99530.31;;;17.00;50.06
29879;BME280;16752;53.364;-1.488;2024-02-14T02:00:35;99531.31;;;16.99;50.15
29879;BME280;16752;53.364;-1.488;2024-02-14T02:03:19;99525.03;;;17.00;50.07
29879;BME280;16752;53.364;-1.488;2024-02-14T02:06:05;99517.75;;;17.02;49.95
29879;BME280;16752;53.364;-1.488;2024-02-14T02:08:49;99521.41;;;17.01;49.87
29879;BME280;16752;53.364;-1.488;2024-02-14T02:14:50;99518.25;;;17.06;50.03
29879;BME280;16752;53.364;-1.488;2024-02-14T02:17:33;99516.25;;;17.08;49.80
29879;BME280;16752;53.364;-1.488;2024-02-14T02:20:17;99512.78;;;17.07;50.19
29879;BME280;16752;53.364;-1.488;2024-02-14T02:23:02;99515.78;;;17.13;49.96
29879;BME280;16752;53.364;-1.488;2024-02-14T02:25:46;99515.47;;;17.32;49.48
29879;BME280;16752;53.364;-1.488;2024-02-14T02:28:30;99519.94;;;17.31;49.58
29879;BME280;16752;53.364;-1.488;2024-02-14T02:31:14;99522.75;;;17.46;49.48
29879;BME280;16752;53.364;-1.488;2024-02-14T02:33:58;99514.50;;;17.41;49.57
29879;BME280;16752;53.364;-1.488;2024-02-14T02:36:42;99511.81;;;17.25;49.99
29879;BME280;16752;53.364;-1.488;2024-02-14T02:39:27;99509.19;;;17.49;49.58
29879;BME280;16752;53.364;-1.488;2024-02-14T02:42:11;99513.16;;;17.53;49.62
29879;BME280;16752;53.364;-1.488;2024-02-14T02:44:55;99510.50;;;17.53;49.80
29879;BME280;16752;53.364;-1.488;2024-02-14T02:47:38;99509.50;;;17.54;49.75
29879;BME280;16752;53.364;-1.488;2024-02-14T02:50:23;99508.22;;;17.58;49.41
29879;BME280;16752;53.364;-1.488;2024-02-14T02:53:07;99503.72;;;17.59;49.72
29879;BME280;16752;53.364;-1.488;2024-02-14T02:55:51;99504.53;;;17.35;50.29
29879;BME280;16752;53.364;-1.488;2024-02-14T02:58:37;99505.22;;;17.37;50.57
29879;BME280;16752;53.364;-1.488;2024-02-14T03:01:21;99503.72;;;17.26;51.00
29879;BME280;16752;53.364;-1.488;2024-02-14T03:04:07;99510.19;;;17.40;50.56
29879;BME280;16752;53.364;-1.488;2024-02-14T03:06:52;99507.38;;;17.41;50.43
29879;BME280;16752;53.364;-1.488;2024-02-14T03:09:36;99508.38;;;17.40;50.65
29879;BME280;16752;53.364;-1.488;2024-02-14T03:12:19;99507.72;;;17.38;50.67
29879;BME280;16752;53.364;-1.488;2024-02-14T03:15:04;99503.72;;;17.26;51.13
29879;BME280;16752;53.364;-1.488;2024-02-14T03:17:49;99500.94;;;17.36;50.46
29879;BME280;16752;53.364;-1.488;2024-02-14T03:20:33;99493.28;;;17.33;50.67
29879;BME280;16752;53.364;-1.488;2024-02-14T03:23:17;99491.81;;;17.38;50.59
29879;BME280;16752;53.364;-1.488;2024-02-14T03:26:01;99489.00;;;17.40;50.88
29879;BME280;16752;53.364;-1.488;2024-02-14T03:28:45;99492.31;;;17.42;50.82
29879;BME280;16752;53.364;-1.488;2024-02-14T03:31:28;99500.91;;;17.44;50.73
29879;BME280;16752;53.364;-1.488;2024-02-14T03:34:13;99488.50;;;17.28;51.85
29879;BME280;16752;53.364;-1.488;2024-02-14T03:36:56;99460.19;;;17.04;52.60
29879;BME280;16752;53.364;-1.488;2024-02-14T03:39:40;99486.03;;;17.43;52.01
29879;BME280;16752;53.364;-1.488;2024-02-14T03:42:24;99489.84;;;17.40;52.25
29879;BME280;16752;53.364;-1.488;2024-02-14T03:45:10;99498.09;;;17.46;52.06
29879;BME280;16752;53.364;-1.488;2024-02-14T03:47:54;99487.69;;;17.44;52.57
29879;BME280;16752;53.364;-1.488;2024-02-14T03:50:38;99499.88;;;17.04;54.58
29879;BME280;16752;53.364;-1.488;2024-02-14T03:53:23;99496.59;;;17.19;53.82
29879;BME280;16752;53.364;-1.488;2024-02-14T03:56:06;99495.94;;;17.65;52.64
29879;BME280;16752;53.364;-1.488;2024-02-14T03:58:53;99487.00;;;17.26;54.08
29879;BME280;16752;53.364;-1.488;2024-02-14T04:01:37;99491.31;;;17.19;54.76
29879;BME280;16752;53.364;-1.488;2024-02-14T04:04:22;99492.66;;;17.71;52.98
29879;BME280;16752;53.364;-1.488;2024-02-14T04:07:06;99489.94;;;18.04;52.20
29879;BME280;16752;53.364;-1.488;2024-02-14T04:09:52;99492.72;;;18.11;51.63
29879;BME280;16752;53.364;-1.488;2024-02-14T04:12:36;99495.25;;;17.96;52.29
29879;BME280;16752;53.364;-1.488;2024-02-14T04:15:20;99495.09;;;17.89;52.57
29879;BME280;16752;53.364;-1.488;2024-02-14T04:18:04;99493.94;;;17.92;52.25
29879;BME280;16752;53.364;-1.488;2024-02-14T04:20:50;99497.91;;;17.96;52.04
29879;BME280;16752;53.364;-1.488;2024-02-14T04:23:35;99492.25;;;18.07;51.96
29879;BME280;16752;53.364;-1.488;2024-02-14T04:26:19;99483.81;;;17.95;52.45
29879;BME280;16752;53.364;-1.488;2024-02-14T04:29:03;99477.22;;;17.91;52.15
29879;BME280;16752;53.364;-1.488;2024-02-14T04:31:47;99480.66;;;18.08;52.13
29879;BME280;16752;53.364;-1.488;2024-02-14T04:34:33;99488.47;;;17.93;52.54
29879;BME280;16752;53.364;-1.488;2024-02-14T04:37:16;99476.00;;;18.10;51.99
29879;BME280;16752;53.364;-1.488;2024-02-14T04:40:02;99480.06;;;17.41;54.02
29879;BME280;16752;53.364;-1.488;2024-02-14T04:42:47;99468.50;;;17.18;55.13
29879;BME280;16752;53.364;-1.488;2024-02-14T04:45:31;99467.81;;;17.81;53.51
29879;BME280;16752;53.364;-1.488;2024-02-14T04:48:15;99465.78;;;17.91;53.01
29879;BME280;16752;53.364;-1.488;2024-02-14T04:50:59;99465.56;;;18.09;52.32
29879;BME280;16752;53.364;-1.488;2024-02-14T04:53:43;99466.13;;;17.88;52.96
29879;BME280;16752;53.364;-1.488;2024-02-14T04:56:27;99467.63;;;17.74;53.39
29879;BME280;16752;53.364;-1.488;2024-02-14T04:59:12;99466.31;;;17.29;54.80
29879;BME280;16752;53.364;-1.488;2024-02-14T05:01:55;99472.13;;;17.57;54.51
29879;BME280;16752;53.364;-1.488;2024-02-14T05:04:40;99474.22;;;17.94;53.40
29879;BME280;16752;53.364;-1.488;2024-02-14T05:07:24;99479.06;;;17.66;53.81
29879;BME280;16752;53.364;-1.488;2024-02-14T05:10:08;99476.44;;;17.42;54.82
29879;BME280;16752;53.364;-1.488;2024-02-14T05:12:52;99476.75;;;17.47;55.19
29879;BME280;16752;53.364;-1.488;2024-02-14T05:15:36;99466.50;;;17.28;55.71
29879;BME280;16752;53.364;-1.488;2024-02-14T05:18:20;99476.25;;;17.84;54.52
29879;BME280;16752;53.364;-1.488;2024-02-14T05:21:05;99479.38;;;17.88;54.17
29879;BME280;16752;53.364;-1.488;2024-02-14T05:23:49;99484.19;;;17.84;54.48
29879;BME280;16752;53.364;-1.488;2024-02-14T05:26:34;99488.47;;;17.93;53.99
29879;BME280;16752;53.364;-1.488;2024-02-14T05:29:17;99463.16;;;17.50;55.23
29879;BME280;16752;53.364;-1.488;2024-02-14T05:32:04;99492.97;;;17.85;54.44
29879;BME280;16752;53.364;-1.488;2024-02-14T05:34:47;99491.66;;;17.81;54.68
29879;BME280;16752;53.364;-1.488;2024-02-14T05:37:31;99485.50;;;18.36;53.04
29879;BME280;16752;53.364;-1.488;2024-02-14T05:40:15;99494.19;;;18.21;53.53
29879;BME280;16752;53.364;-1.488;2024-02-14T05:42:59;99490.75;;;18.52;52.40
29879;BME280;16752;53.364;-1.488;2024-02-14T05:45:43;99496.06;;;18.52;52.47
29879;BME280;16752;53.364;-1.488;2024-02-14T05:48:27;99490.75;;;18.52;52.24
29879;BME280;16752;53.364;-1.488;2024-02-14T05:51:11;99493.81;;;18.32;52.89
29879;BME280;16752;53.364;-1.488;2024-02-14T05:53:55;99497.06;;;18.51;52.41
29879;BME280;16752;53.364;-1.488;2024-02-14T05:56:39;99509.94;;;18.15;53.35
29879;BME280;16752;53.364;-1.488;2024-02-14T05:59:23;99498.47;;;18.30;53.18
29879;BME280;16752;53.364;-1.488;2024-02-14T06:02:07;99493.25;;;17.98;53.82
29879;BME280;16752;53.364;-1.488;2024-02-14T06:04:52;99487.22;;;18.28;53.15
29879;BME280;16752;53.364;-1.488;2024-02-14T06:07:36;99486.22;;;18.29;53.10
29879;BME280;16752;53.364;-1.488;2024-02-14T06:10:20;99490.44;;;18.47;52.48
29879;BME280;16752;53.364;-1.488;2024-02-14T06:13:04;99494.72;;;18.56;52.19
29879;BME280;16752;53.364;-1.488;2024-02-14T06:15:48;99492.28;;;18.46;52.53
29879;BME280;16752;53.364;-1.488;2024-02-14T06:18:32;99491.56;;;18.13;53.51
29879;BME280;16752;53.364;-1.488;2024-02-14T06:21:16;99495.13;;;18.37;52.57
29879;BME280;16752;53.364;-1.488;2024-02-14T06:24:00;99493.09;;;18.47;52.69
29879;BME280;16752;53.364;-1.488;2024-02-14T06:26:47;99500.66;;;18.58;52.57
29879;BME280;16752;53.364;-1.488;2024-02-14T06:29:31;99493.66;;;18.34;53.41
29879;BME280;16752;53.364;-1.488;2024-02-14T06:32:15;99500.59;;;18.35;53.29
29879;BME280;16752;53.364;-1.488;2024-02-14T06:34:59;99501.88;;;18.47;52.82
29879;BME280;16752;53.364;-1.488;2024-02-14T06:37:43;99500.59;;;18.35;52.78
29879;BME280;16752;53.364;-1.488;2024-02-14T06:40:27;99508.13;;;18.15;54.05
29879;BME280;16752;53.364;-1.488;2024-02-14T06:43:13;99520.19;;;18.26;53.85
29879;BME280;16752;53.364;-1.488;2024-02-14T06:45:57;99521.34;;;18.31;53.96
29879;BME280;16752;53.364;-1.488;2024-02-14T06:48:41;99518.28;;;18.43;53.73
29879;BME280;16752;53.364;-1.488;2024-02-14T06:51:25;99523.78;;;18.88;52.18
29879;BME280;16752;53.364;-1.488;2024-02-14T06:54:08;99527.84;;;18.68;52.36
29879;BME280;16752;53.364;-1.488;2024-02-14T06:56:52;99530.09;;;18.79;52.42
29879;BME280;16752;53.364;-1.488;2024-02-14T06:59:36;99532.38;;;18.43;53.49
29879;BME280;16752;53.364;-1.488;2024-02-14T07:02:21;99533.03;;;18.92;52.23
29879;BME280;16752;53.364;-1.488;2024-02-14T07:05:05;99535.59;;;18.30;53.98
29879;BME280;16752;53.364;-1.488;2024-02-14T07:07:51;99530.22;;;17.91;55.24
29879;BME280;16752;53.364;-1.488;2024-02-14T07:10:35;99536.84;;;18.43;53.87
29879;BME280;16752;53.364;-1.488;2024-02-14T07:13:19;99540.84;;;18.47;53.76
29879;BME280;16752;53.364;-1.488;2024-02-14T07:16:03;99538.53;;;18.36;53.95
29879;BME280;16752;53.364;-1.488;2024-02-14T07:18:47;99541.34;;;18.89;52.72
29879;BME280;16752;53.364;-1.488;2024-02-14T07:21:31;99534.50;;;18.56;53.74
29879;BME280;16752;53.364;-1.488;2024-02-14T07:24:17;99533.56;;;18.88;52.85
29879;BME280;16752;53.364;-1.488;2024-02-14T07:27:00;99542.19;;;18.35;53.96
29879;BME280;16752;53.364;-1.488;2024-02-14T07:29:44;99542.28;;;18.97;52.00
29879;BME280;16752;53.364;-1.488;2024-02-14T07:32:28;99548.56;;;18.09;54.54
29879;BME280;16752;53.364;-1.488;2024-02-14T07:35:12;99555.53;;;18.10;54.80
29879;BME280;16752;53.364;-1.488;2024-02-14T07:38:00;99559.41;;;18.39;54.03
29879;BME280;16752;53.364;-1.488;2024-02-14T07:40:44;99558.72;;;18.53;53.63
29879;BME280;16752;53.364;-1.488;2024-02-14T07:43:27;99556.84;;;17.98;55.02
29879;BME280;16752;53.364;-1.488;2024-02-14T07:46:16;99552.97;;;18.88;52.75
29879;BME280;16752;53.364;-1.488;2024-02-14T07:49:00;99548.88;;;19.32;51.64
29879;BME280;16752;53.364;-1.488;2024-02-14T07:51:44;99557.59;;;18.39;53.81
29879;BME280;16752;53.364;-1.488;2024-02-14T07:54:28;99552.53;;;17.97;55.10
29879;BME280;16752;53.364;-1.488;2024-02-14T07:57:12;99556.03;;;18.69;52.76
29879;BME280;16752;53.364;-1.488;2024-02-14T07:59:56;99550.56;;;18.62;53.64
29879;BME280;16752;53.364;-1.488;2024-02-14T08:02:39;99554.28;;;19.15;51.95
29879;BME280;16752;53.364;-1.488;2024-02-14T08:05:23;99552.28;;;19.17;51.74
29879;BME280;16752;53.364;-1.488;2024-02-14T08:08:07;99541.53;;;18.80;52.99
29879;BME280;16752;53.364;-1.488;2024-02-14T08:10:51;99549.84;;;19.08;52.32
29879;BME280;16752;53.364;-1.488;2024-02-14T08:13:35;99555.69;;;19.57;50.73
29879;BME280;16752;53.364;-1.488;2024-02-14T08:16:20;99558.50;;;19.02;51.86
29879;BME280;16752;53.364;-1.488;2024-02-14T08:19:04;99556.28;;;18.82;52.54
29879;BME280;16752;53.364;-1.488;2024-02-14T08:21:48;99560.63;;;19.14;51.86
29879;BME280;16752;53.364;-1.488;2024-02-14T08:24:32;99563.28;;;19.06;51.98
29879;BME280;16752;53.364;-1.488;2024-02-14T08:27:16;99560.91;;;19.42;50.99
29879;BME280;16752;53.364;-1.488;2024-02-14T08:30:00;99556.19;;;19.30;51.33
29879;BME280;16752;53.364;-1.488;2024-02-14T08:32:44;99560.25;;;19.40;51.15
29879;BME280;16752;53.364;-1.488;2024-02-14T08:35:28;99558.00;;;19.98;49.27
29879;BME280;16752;53.364;-1.488;2024-02-14T08:38:12;99557.22;;;19.89;49.63
29879;BME280;16752;53.364;-1.488;2024-02-14T08:40:56;99558.00;;;19.98;49.17
29879;BME280;16752;53.364;-1.488;2024-02-14T08:43:40;99565.84;;;19.76;49.60
29879;BME280;16752;53.364;-1.488;2024-02-14T08:46:24;99557.53;;;19.57;50.50
29879;BME280;16752;53.364;-1.488;2024-02-14T08:49:09;99565.31;;;19.50;50.30
29879;BME280;16752;53.364;-1.488;2024-02-14T08:51:53;99572.78;;;19.32;51.14
29879;BME280;16752;53.364;-1.488;2024-02-14T08:54:37;99573.47;;;19.48;50.84
29879;BME280;16752;53.364;-1.488;2024-02-14T08:57:21;99566.31;;;19.57;50.44
29879;BME280;16752;53.364;-1.488;2024-02-14T09:00:07;99570.44;;;19.60;50.26
29879;BME280;16752;53.364;-1.488;2024-02-14T09:02:51;99575.31;;;19.56;50.51
29879;BME280;16752;53.364;-1.488;2024-02-14T09:05:36;99583.09;;;19.58;50.45
29879;BME280;16752;53.364;-1.488;2024-02-14T09:08:22;99577.53;;;19.67;50.49
29879;BME280;16752;53.364;-1.488;2024-02-14T09:11:07;99574.88;;;19.67;50.54
29879;BME280;16752;53.364;-1.488;2024-02-14T09:13:51;99574.41;;;19.10;51.65
29879;BME280;16752;53.364;-1.488;2024-02-14T09:16:39;99570.06;;;19.40;50.91
29879;BME280;16752;53.364;-1.488;2024-02-14T09:19:23;99573.88;;;19.14;52.37
29879;BME280;16752;53.364;-1.488;2024-02-14T09:22:09;99569.72;;;19.43;51.47
29879;BME280;16752;53.364;-1.488;2024-02-14T09:24:52;99577.84;;;19.18;52.33
29879;BME280;16752;53.364;-1.488;2024-02-14T09:27:36;99566.03;;;19.21;52.46
29879;BME280;16752;53.364;-1.488;2024-02-14T09:30:20;99563.34;;;18.67;54.29
29879;BME280;16752;53.364;-1.488;2024-02-14T09:33:05;99578.28;;;19.53;51.97
29879;BME280;16752;53.364;-1.488;2024-02-14T09:35:49;99574.88;;;19.67;51.36
29879;BME280;16752;53.364;-1.488;2024-02-14T09:38:35;99587.13;;;19.53;51.90
29879;BME280;16752;53.364;-1.488;2024-02-14T09:41:25;99578.47;;;19.74;51.38
29879;BME280;16752;53.364;-1.488;2024-02-14T09:44:10;99573.84;;;19.45;52.32
29879;BME280;16752;53.364;-1.488;2024-02-14T09:46:57;99577.59;;;19.51;51.61
29879;BME280;16752;53.364;-1.488;2024-02-14T09:49:42;99573.25;;;20.19;50.56
29879;BME280;16752;53.364;-1.488;2024-02-14T09:52:26;99572.38;;;20.41;49.70
29879;BME280;16752;53.364;-1.488;2024-02-14T09:55:10;99574.25;;;20.18;50.32
29879;BME280;16752;53.364;-1.488;2024-02-14T09:57:55;99578.22;;;19.38;52.49
29879;BME280;16752;53.364;-1.488;2024-02-14T10:00:40;99575.78;;;20.12;50.63
29879;BME280;16752;53.364;-1.488;2024-02-14T10:03:25;99582.50;;;20.23;50.71
29879;BME280;16752;53.364;-1.488;2024-02-14T10:06:09;99586.72;;;20.17;50.66
29879;BME280;16752;53.364;-1.488;2024-02-14T10:08:53;99577.13;;;19.93;51.60
29879;BME280;16752;53.364;-1.488;2024-02-14T10:11:37;99585.94;;;20.46;50.49
29879;BME280;16752;53.364;-1.488;2024-02-14T10:14:22;99584.66;;;20.42;50.01
29879;BME280;16752;53.364;-1.488;2024-02-14T10:17:06;99580.66;;;20.38;50.57
29879;BME280;16752;53.364;-1.488;2024-02-14T10:20:00;99577.16;;;20.46;50.14
29879;BME280;16752;53.364;-1.488;2024-02-14T10:22:49;99578.97;;;20.45;50.63
29879;BME280;16752;53.364;-1.488;2024-02-14T10:25:34;99568.78;;;19.36;53.16
29879;BME280;16752;53.364;-1.488;2024-02-14T10:28:18;99574.19;;;19.88;51.71
29879;BME280;16752;53.364;-1.488;2024-02-14T10:31:05;99577.63;;;19.97;51.94
29879;BME280;16752;53.364;-1.488;2024-02-14T10:33:49;99578.59;;;19.81;52.04
29879;BME280;16752;53.364;-1.488;2024-02-14T10:36:33;99582.97;;;19.74;52.50
29879;BME280;16752;53.364;-1.488;2024-02-14T10:39:18;99572.47;;;19.58;52.54
29879;BME280;16752;53.364;-1.488;2024-02-14T10:42:02;99592.31;;;19.08;54.29
29879;BME280;16752;53.364;-1.488;2024-02-14T10:44:47;99595.28;;;19.67;52.72
29879;BME280;16752;53.364;-1.488;2024-02-14T10:47:36;99598.00;;;20.19;51.97
29879;BME280;16752;53.364;-1.488;2024-02-14T10:50:22;99596.75;;;19.69;52.76
29879;BME280;16752;53.364;-1.488;2024-02-14T10:53:11;99599.56;;;19.45;53.61
29879;BME280;16752;53.364;-1.488;2024-02-14T10:55:56;99601.59;;;20.26;51.70
29879;BME280;16752;53.364;-1.488;2024-02-14T10:58:42;99598.75;;;19.90;52.66
29879;BME280;16752;53.364;-1.488;2024-02-14T11:01:28;99595.09;;;19.45;53.81
29879;BME280;16752;53.364;-1.488;2024-02-14T11:04:15;99598.47;;;19.39;53.79
29879;BME280;16752;53.364;-1.488;2024-02-14T11:06:59;99589.63;;;19.70;54.04
29879;BME280;16752;53.364;-1.488;2024-02-14T11:09:46;99592.19;;;20.15;52.66
29879;BME280;16752;53.364;-1.488;2024-02-14T11:12:34;99598.47;;;19.85;53.83
29879;BME280;16752;53.364;-1.488;2024-02-14T11:15:20;99596.97;;;20.43;52.41
29879;BME280;16752;53.364;-1.488;2024-02-14T11:18:05;99596.09;;;20.28;52.23
29879;BME280;16752;53.364;-1.488;2024-02-14T11:20:51;99599.38;;;19.77;53.52
29879;BME280;16752;53.364;-1.488;2024-02-14T11:23:35;99597.78;;;20.43;52.09
29879;BME280;16752;53.364;-1.488;2024-02-14T11:26:21;99596.81;;;20.22;52.15
29879;BME280;16752;53.364;-1.488;2024-02-14T11:29:07;99609.88;;;20.75;51.32
29879;BME280;16752;53.364;-1.488;2024-02-14T11:31:57;99596.63;;;20.38;52.10
29879;BME280;16752;53.364;-1.488;2024-02-14T11:34:42;99590.81;;;20.42;51.43
29879;BME280;16752;53.364;-1.488;2024-02-14T11:37:29;99591.88;;;20.78;51.16
29879;BME280;16752;53.364;-1.488;2024-02-14T11:40:13;99592.25;;;20.74;51.60
29879;BME280;16752;53.364;-1.488;2024-02-14T11:42:57;99583.19;;;20.39;51.71
29879;BME280;16752;53.364;-1.488;2024-02-14T11:45:41;99580.34;;;19.43;53.48
29879;BME280;16752;53.364;-1.488;2024-02-14T11:48:25;99592.06;;;19.79;53.35
29879;BME280;16752;53.364;-1.488;2024-02-14T11:51:09;99594.19;;;19.61;54.25
29879;BME280;16752;53.364;-1.488;2024-02-14T11:53:53;99598.19;;;20.32;51.77
29879;BME280;16752;53.364;-1.488;2024-02-14T11:56:38;99585.31;;;20.44;51.58
29879;BME280;16752;53.364;-1.488;2024-02-14T11:59:21;99594.09;;;20.59;51.24
29879;BME280;16752;53.364;-1.488;2024-02-14T12:02:07;99591.00;;;20.03;52.28
29879;BME280;16752;53.364;-1.488;2024-02-14T12:04:50;99578.94;;;20.30;51.98
29879;BME280;16752;53.364;-1.488;2024-02-14T12:07:37;99579.25;;;20.50;51.67
29879;BME280;16752;53.364;-1.488;2024-02-14T12:10:21;99579.00;;;21.11;50.27
29879;BME280;16752;53.364;-1.488;2024-02-14T12:13:09;99585.84;;;21.20;49.92
29879;BME280;16752;53.364;-1.488;2024-02-14T12:15:53;99586.34;;;21.45;49.33
29879;BME280;16752;53.364;-1.488;2024-02-14T12:18:37;99594.34;;;21.09;50.27
29879;BME280;16752;53.364;-1.488;2024-02-14T12:21:21;99586.81;;;21.98;49.09
29879;BME280;16752;53.364;-1.488;2024-02-14T12:24:08;99594.84;;;21.55;49.47
29879;BME280;16752;53.364;-1.488;2024-02-14T12:26:52;99588.66;;;21.69;49.19
29879;BME280;16752;53.364;-1.488;2024-02-14T12:29:36;99589.66;;;20.96;50.40
29879;BME280;16752;53.364;-1.488;2024-02-14T12:32:20;99593.06;;;21.41;49.67
29879;BME280;16752;53.364;-1.488;2024-02-14T12:35:06;99592.06;;;20.91;50.65
29879;BME280;16752;53.364;-1.488;2024-02-14T12:37:50;99592.88;;;21.63;48.98
29879;BME280;16752;53.364;-1.488;2024-02-14T12:40:34;99598.53;;;21.18;50.14
29879;BME280;16752;53.364;-1.488;2024-02-14T12:43:18;99599.81;;;21.58;49.08
29879;BME280;16752;53.364;-1.488;2024-02-14T12:46:02;99590.97;;;21.21;49.80
29879;BME280;16752;53.364;-1.488;2024-02-14T12:48:48;99602.50;;;21.43;49.60
29879;BME280;16752;53.364;-1.488;2024-02-14T12:51:32;99608.94;;;21.49;49.47
29879;BME280;16752;53.364;-1.488;2024-02-14T12:54:16;99599.91;;;20.63;51.45
29879;BME280;16752;53.364;-1.488;2024-02-14T12:57:00;99598.47;;;21.26;50.35
29879;BME280;16752;53.364;-1.488;2024-02-14T12:59:45;99603.88;;;21.54;49.27
29879;BME280;16752;53.364;-1.488;2024-02-14T13:02:29;99599.66;;;21.09;50.21
29879;BME280;16752;53.364;-1.488;2024-02-14T13:05:13;99590.50;;;20.96;51.29
29879;BME280;16752;53.364;-1.488;2024-02-14T13:07:57;99600.81;;;20.70;51.79
29879;BME280;16752;53.364;-1.488;2024-02-14T13:10:42;99600.38;;;21.53;50.19
29879;BME280;16752;53.364;-1.488;2024-02-14T13:13:25;99594.22;;;21.31;50.66
29879;BME280;16752;53.364;-1.488;2024-02-14T13:16:09;99603.13;;;21.24;50.02
29879;BME280;16752;53.364;-1.488;2024-02-14T13:18:54;99592.94;;;21.91;49.05
29879;BME280;16752;53.364;-1.488;2024-02-14T13:21:38;99599.22;;;21.84;48.63
29879;BME280;16752;53.364;-1.488;2024-02-14T13:24:23;99605.94;;;21.37;49.91
29879;BME280;16752;53.364;-1.488;2024-02-14T13:27:07;99596.25;;;21.51;49.69
29879;BME280;16752;53.364;-1.488;2024-02-14T13:29:51;99606.09;;;20.99;50.76
29879;BME280;16752;53.364;-1.488;2024-02-14T13:32:35;99600.28;;;21.89;47.69
29879;BME280;16752;53.364;-1.488;2024-02-14T13:35:19;99602.59;;;21.92;48.32
29879;BME280;16752;53.364;-1.488;2024-02-14T13:38:04;99606.41;;;21.62;49.00
29879;BME280;16752;53.364;-1.488;2024-02-14T13:40:49;99611.97;;;20.80;50.03
29879;BME280;16752;53.364;-1.488;2024-02-14T13:43:32;99606.16;;;21.78;48.57
29879;BME280;16752;53.364;-1.488;2024-02-14T13:46:16;99605.56;;;22.04;48.14
29879;BME280;16752;53.364;-1.488;2024-02-14T13:49:02;99613.09;;;20.86;49.51
29879;BME280;16752;53.364;-1.488;2024-02-14T13:51:46;99618.19;;;21.95;47.08
29879;BME280;16752;53.364;-1.488;2024-02-14T13:54:30;99624.94;;;21.70;48.14
29879;BME280;16752;53.364;-1.488;2024-02-14T13:57:14;99611.63;;;21.49;48.53
29879;BME280;16752;53.364;-1.488;2024-02-14T13:59:58;99612.75;;;21.25;48.09
29879;BME280;16752;53.364;-1.488;2024-02-14T14:02:42;99621.41;;;20.24;50.25
29879;BME280;16752;53.364;-1.488;2024-02-14T14:05:26;99622.13;;;20.32;50.22
29879;BME280;16752;53.364;-1.488;2024-02-14T14:08:10;99620.13;;;21.08;49.41
29879;BME280;16752;53.364;-1.488;2024-02-14T14:10:54;99622.44;;;20.96;49.47
29879;BME280;16752;53.364;-1.488;2024-02-14T14:13:38;99619.97;;;21.67;47.95
29879;BME280;16752;53.364;-1.488;2024-02-14T14:16:22;99612.75;;;21.25;48.79
29879;BME280;16752;53.364;-1.488;2024-02-14T14:19:06;99613.69;;;21.96;47.53
29879;BME280;16752;53.364;-1.488;2024-02-14T14:21:50;99608.44;;;21.24;48.86
29879;BME280;16752;53.364;-1.488;2024-02-14T14:24:34;99601.81;;;20.54;49.83